createdAt,value
2023-05-07T00:01:41.765Z,8.97
2023-05-07T00:04:09.696Z,9.87
2023-05-07T00:06:37.241Z,8.43
2023-05-07T00:09:05.631Z,9.00
2023-05-07T00:11:35.060Z,8.25
2023-05-07T00:14:03.886Z,7.37
2023-05-07T00:16:31.245Z,6.57
2023-05-07T00:18:58.880Z,6.70
2023-05-07T00:21:28.963Z,5.83
2023-05-07T00:23:56.261Z,5.60
2023-05-07T00:26:23.867Z,5.43
2023-05-07T00:28:51.999Z,5.27
2023-05-07T00:31:19.624Z,5.77
2023-05-07T00:33:47.871Z,5.47
2023-05-07T00:36:15.151Z,5.30
2023-05-07T00:38:42.439Z,6.10
2023-05-07T00:41:10.010Z,6.37
2023-05-07T00:43:37.304Z,8.33
2023-05-07T00:46:04.765Z,8.40
2023-05-07T00:48:33.007Z,9.47
2023-05-07T00:51:00.462Z,7.93
2023-05-07T00:53:27.808Z,8.30
2023-05-07T00:55:56.863Z,6.63
2023-05-07T00:58:25.216Z,5.78
2023-05-07T01:00:53.068Z,6.03
2023-05-07T01:03:21.860Z,6.20
2023-05-07T01:05:51.041Z,5.97
2023-05-07T01:08:19.716Z,5.93
2023-05-07T01:10:47.951Z,7.82
2023-05-07T01:13:16.367Z,8.63
2023-05-07T01:15:44.777Z,8.13
2023-05-07T01:18:12.671Z,7.30
2023-05-07T01:20:40.085Z,7.87
2023-05-07T01:23:08.333Z,6.43
2023-05-07T01:25:36.283Z,6.05
2023-05-07T01:28:03.708Z,5.77
2023-05-07T01:30:33.073Z,6.90
2023-05-07T01:33:10.458Z,7.33
2023-05-07T01:35:41.765Z,7.90
2023-05-07T01:38:10.282Z,7.07
2023-05-07T01:40:37.930Z,7.87
2023-05-07T01:43:06.566Z,7.43
2023-05-07T01:45:35.524Z,6.35
2023-05-07T01:48:04.353Z,6.53
2023-05-07T01:50:33.474Z,6.75
2023-05-07T01:53:02.701Z,6.10
2023-05-07T01:57:57.726Z,5.33
2023-05-07T02:00:25.605Z,6.60
2023-05-07T02:02:54.079Z,6.67
2023-05-07T02:05:22.255Z,8.88
2023-05-07T02:07:50.679Z,8.13
2023-05-07T02:10:18.660Z,7.80
2023-05-07T02:12:46.019Z,12.47
2023-05-07T02:15:13.410Z,8.53
2023-05-07T02:18:00.482Z,6.43
2023-05-07T02:20:28.090Z,7.07
2023-05-07T02:22:58.553Z,9.83
2023-05-07T02:25:26.620Z,11.20
2023-05-07T02:27:53.966Z,11.23
2023-05-07T02:30:22.985Z,6.93
2023-05-07T02:32:52.167Z,6.03
2023-05-07T02:35:19.820Z,6.73
2023-05-07T02:37:47.345Z,10.37
2023-05-07T02:40:15.149Z,7.60
2023-05-07T02:42:42.388Z,8.73
2023-05-07T02:45:10.457Z,6.47
2023-05-07T02:50:07.089Z,6.80
2023-05-07T02:52:35.573Z,6.30
2023-05-07T02:55:03.771Z,6.67
2023-05-07T02:57:31.132Z,7.97
2023-05-07T02:59:59.399Z,6.63
2023-05-07T03:02:29.549Z,6.17
2023-05-07T03:04:57.201Z,6.43
2023-05-07T03:07:24.530Z,7.40
2023-05-07T03:09:52.152Z,6.97
2023-05-07T03:12:19.535Z,6.47
2023-05-07T03:14:46.899Z,7.90
2023-05-07T03:17:17.263Z,7.37
2023-05-07T03:19:44.629Z,7.17
2023-05-07T03:22:11.990Z,8.27
2023-05-07T03:24:39.575Z,7.10
2023-05-07T03:27:06.878Z,7.33
2023-05-07T03:29:35.408Z,5.57
2023-05-07T03:32:03.149Z,7.57
2023-05-07T03:34:30.501Z,8.33
2023-05-07T03:36:57.763Z,9.10
2023-05-07T03:39:25.543Z,7.97
2023-05-07T03:41:53.445Z,8.23
2023-05-07T03:44:21.359Z,7.83
2023-05-07T03:46:50.856Z,7.73
2023-05-07T03:49:18.723Z,7.43
2023-05-07T03:51:46.435Z,8.40
2023-05-07T03:54:14.335Z,7.80
2023-05-07T03:59:10.635Z,7.47
2023-05-07T04:01:38.466Z,6.57
2023-05-07T04:04:06.328Z,7.37
2023-05-07T04:06:34.593Z,8.23
2023-05-07T04:09:01.908Z,7.67
2023-05-07T04:11:29.995Z,6.77
2023-05-07T04:13:57.334Z,6.83
2023-05-07T04:16:24.812Z,7.33
2023-05-07T04:18:52.610Z,7.27
2023-05-07T04:21:21.597Z,7.37
2023-05-07T04:23:50.150Z,7.60
2023-05-07T04:26:17.772Z,7.25
2023-05-07T04:28:45.332Z,7.73
2023-05-07T04:31:12.754Z,7.43
2023-05-07T04:33:41.899Z,7.30
2023-05-07T04:36:09.863Z,7.15
2023-05-07T04:38:38.024Z,7.70
2023-05-07T04:41:07.703Z,8.90
2023-05-07T04:43:35.606Z,8.30
2023-05-07T04:46:03.097Z,10.07
2023-05-07T04:48:31.897Z,11.50
2023-05-07T04:50:59.574Z,15.73
2023-05-07T04:53:27.190Z,22.40
2023-05-07T04:55:59.158Z,26.00
2023-05-07T04:58:27.082Z,23.77
2023-05-07T05:00:55.377Z,20.87
2023-05-07T05:03:23.198Z,17.33
2023-05-07T05:05:52.752Z,19.43
2023-05-07T05:08:21.281Z,16.07
2023-05-07T05:10:51.099Z,15.83
2023-05-07T05:13:19.182Z,13.73
2023-05-07T05:15:47.378Z,12.82
2023-05-07T05:18:14.809Z,12.30
2023-05-07T05:20:42.122Z,14.43
2023-05-07T05:23:12.556Z,11.13
2023-05-07T05:25:41.519Z,12.17
2023-05-07T05:28:09.119Z,12.80
2023-05-07T05:30:36.757Z,12.20
2023-05-07T05:33:04.357Z,14.17
2023-05-07T05:35:32.863Z,12.30
2023-05-07T05:38:02.362Z,11.17
2023-05-07T05:40:29.922Z,11.57
2023-05-07T05:42:57.617Z,11.87
2023-05-07T05:45:26.581Z,11.93
2023-05-07T05:47:54.768Z,12.95
2023-05-07T05:50:22.410Z,13.23
2023-05-07T05:52:50.445Z,12.40
2023-05-07T05:55:18.333Z,12.67
2023-05-07T05:57:47.273Z,11.45
2023-05-07T06:00:15.484Z,11.32
2023-05-07T06:02:46.077Z,12.50
2023-05-07T06:05:14.760Z,11.00
2023-05-07T06:07:42.897Z,11.43
2023-05-07T06:10:10.799Z,12.47
2023-05-07T06:12:39.367Z,11.93
2023-05-07T06:15:07.498Z,11.63
2023-05-07T06:17:35.511Z,11.90
2023-05-07T06:20:03.397Z,12.07
2023-05-07T06:22:30.844Z,10.83
2023-05-07T06:24:59.150Z,11.88
2023-05-07T06:27:27.083Z,10.97
2023-05-07T06:29:54.643Z,12.43
2023-05-07T06:32:22.560Z,10.87
2023-05-07T06:34:51.263Z,11.00
2023-05-07T06:37:19.063Z,11.60
2023-05-07T06:39:47.090Z,10.60
2023-05-07T06:42:15.224Z,10.73
2023-05-07T06:44:43.532Z,9.47
2023-05-07T06:47:11.903Z,9.75
2023-05-07T06:49:41.884Z,10.17
2023-05-07T06:52:09.702Z,9.33
2023-05-07T06:57:06.838Z,15.40
2023-05-07T06:59:34.702Z,8.63
2023-05-07T07:02:02.099Z,11.20
2023-05-07T07:04:29.994Z,8.70
2023-05-07T07:06:59.427Z,9.13
2023-05-07T07:09:26.926Z,8.10
2023-05-07T07:11:54.662Z,7.27
2023-05-07T07:14:22.450Z,8.40
2023-05-07T07:16:50.070Z,8.33
2023-05-07T07:19:18.238Z,7.35
2023-05-07T07:21:47.918Z,7.27
2023-05-07T07:24:20.355Z,7.65
2023-05-07T07:26:49.144Z,7.10
2023-05-07T07:29:17.154Z,5.68
2023-05-07T07:31:46.197Z,5.50
2023-05-07T07:34:13.852Z,4.75
2023-05-07T07:36:46.246Z,4.45
2023-05-07T07:39:15.032Z,3.80
2023-05-07T07:41:42.539Z,3.67
2023-05-07T07:44:09.985Z,3.20
2023-05-07T07:46:39.345Z,3.72
2023-05-07T07:49:06.730Z,4.15
2023-05-07T07:51:34.460Z,4.35
2023-05-07T07:54:04.159Z,4.03
2023-05-07T07:56:34.810Z,3.72
2023-05-07T07:59:03.221Z,4.07
2023-05-07T08:01:31.886Z,3.40
2023-05-07T08:04:00.132Z,3.20
2023-05-07T08:06:28.222Z,3.95
2023-05-07T08:08:56.372Z,3.33
2023-05-07T08:11:24.161Z,3.37
2023-05-07T08:13:51.872Z,3.58
2023-05-07T08:16:20.639Z,3.50
2023-05-07T08:18:49.316Z,3.70
2023-05-07T08:21:17.074Z,3.60
2023-05-07T08:23:44.505Z,3.30
2023-05-07T08:26:12.486Z,3.83
2023-05-07T08:28:40.764Z,3.87
2023-05-07T08:31:08.929Z,3.20
2023-05-07T08:33:37.024Z,4.10
2023-05-07T08:36:05.075Z,4.07
2023-05-07T08:38:33.250Z,3.72
2023-05-07T08:41:01.414Z,3.20
2023-05-07T08:43:33.550Z,4.32
2023-05-07T08:46:07.007Z,4.25
2023-05-07T08:48:37.674Z,4.12
2023-05-07T08:51:06.667Z,4.60
2023-05-07T08:53:35.165Z,4.75
2023-05-07T08:56:03.819Z,5.43
2023-05-07T08:58:31.596Z,5.20
2023-05-07T09:01:02.700Z,5.20
2023-05-07T09:03:31.666Z,5.07
2023-05-07T09:06:00.366Z,5.72
2023-05-07T09:08:28.984Z,4.72
2023-05-07T09:10:59.616Z,4.40
2023-05-07T09:13:29.962Z,4.50
2023-05-07T09:15:58.284Z,4.35
2023-05-07T09:18:26.759Z,4.50
2023-05-07T09:23:24.096Z,4.45
2023-05-07T09:26:01.241Z,4.05
2023-05-07T09:28:29.499Z,7.87
2023-05-07T09:30:57.373Z,4.82
2023-05-07T09:33:29.878Z,5.22
2023-05-07T09:35:58.577Z,4.75
2023-05-07T09:38:26.993Z,4.47
2023-05-07T09:41:13.787Z,4.65
2023-05-07T09:46:16.366Z,7.72
2023-05-07T09:48:45.872Z,4.47
2023-05-07T09:53:47.392Z,4.37
2023-05-07T09:56:16.909Z,4.05
2023-05-07T09:58:47.138Z,3.83
2023-05-07T10:01:15.347Z,5.87
2023-05-07T10:03:44.962Z,3.65
2023-05-07T10:06:16.916Z,4.30
2023-05-07T10:08:45.947Z,3.95
2023-05-07T10:11:16.226Z,3.60
2023-05-07T10:13:45.738Z,4.05
2023-05-07T10:16:14.051Z,3.28
2023-05-07T10:18:43.050Z,3.80
2023-05-07T10:21:24.699Z,3.50
2023-05-07T10:24:15.894Z,4.20
2023-05-07T10:26:46.317Z,3.60
2023-05-07T10:29:22.482Z,4.53
2023-05-07T10:31:54.206Z,3.97
2023-05-07T10:34:29.138Z,3.22
2023-05-07T10:36:58.355Z,3.50
2023-05-07T10:39:28.075Z,3.30
2023-05-07T10:41:56.717Z,3.20
2023-05-07T10:44:29.288Z,3.12
2023-05-07T10:47:14.708Z,3.25
2023-05-07T10:49:42.892Z,3.50
2023-05-07T10:52:31.496Z,6.85
2023-05-07T10:55:26.437Z,3.95
2023-05-07T10:57:55.058Z,6.18
2023-05-07T11:00:38.889Z,15.65
2023-05-07T11:03:08.419Z,3.50
2023-05-07T11:05:38.741Z,3.92
2023-05-07T11:08:08.102Z,3.60
2023-05-07T11:10:51.743Z,3.60
2023-05-07T11:13:42.927Z,3.30
2023-05-07T11:16:29.089Z,2.75
2023-05-07T11:18:59.123Z,3.70
2023-05-07T11:21:35.469Z,3.78
2023-05-07T11:24:06.993Z,3.65
2023-05-07T11:26:49.673Z,3.87
2023-05-07T11:29:23.582Z,3.37
2023-05-07T11:31:56.245Z,3.37
2023-05-07T11:34:26.452Z,3.70
2023-05-07T11:36:54.851Z,3.15
2023-05-07T11:39:37.289Z,4.47
2023-05-07T11:42:05.298Z,6.35
2023-05-07T11:44:47.384Z,3.20
2023-05-07T11:47:19.753Z,3.28
2023-05-07T11:49:52.094Z,3.40
2023-05-07T11:52:21.760Z,3.50
2023-05-07T11:54:54.333Z,3.35
2023-05-07T11:57:22.683Z,4.40
2023-05-07T12:00:00.428Z,3.83
2023-05-07T12:02:29.479Z,4.18
2023-05-07T12:04:57.215Z,3.60
2023-05-07T12:07:25.424Z,3.65
2023-05-07T12:09:53.421Z,3.10
2023-05-07T12:12:21.125Z,4.20
2023-05-07T12:14:49.253Z,3.75
2023-05-07T12:17:17.884Z,3.67
2023-05-07T12:19:46.625Z,4.22
2023-05-07T12:22:14.356Z,8.52
2023-05-07T12:24:49.280Z,3.97
2023-05-07T12:27:18.356Z,3.70
2023-05-07T12:29:49.904Z,3.67
2023-05-07T12:32:19.197Z,3.78
2023-05-07T12:34:47.578Z,3.28
2023-05-07T12:37:15.054Z,3.95
2023-05-07T12:39:49.766Z,3.95
2023-05-07T12:42:20.977Z,4.20
2023-05-07T12:44:48.709Z,3.75
2023-05-07T12:47:16.502Z,3.80
2023-05-07T12:49:46.139Z,5.60
2023-05-07T12:52:14.592Z,3.65
2023-05-07T12:54:41.943Z,3.40
2023-05-07T12:57:11.100Z,3.80
2023-05-07T12:59:42.963Z,4.10
2023-05-07T13:02:10.918Z,5.68
2023-05-07T13:04:39.666Z,4.15
2023-05-07T13:07:06.992Z,4.22
2023-05-07T13:09:34.307Z,4.07
2023-05-07T13:12:02.745Z,4.23
2023-05-07T13:14:30.199Z,4.47
2023-05-07T13:16:57.550Z,3.90
2023-05-07T13:19:25.187Z,4.03
2023-05-07T13:21:52.448Z,4.72
2023-05-07T13:24:19.764Z,3.87
2023-05-07T13:26:47.424Z,3.92
2023-05-07T13:29:14.793Z,3.90
2023-05-07T13:31:45.270Z,3.58
2023-05-07T13:34:12.922Z,4.18
2023-05-07T13:36:41.133Z,4.78
2023-05-07T13:39:08.761Z,3.70
2023-05-07T13:41:36.661Z,3.08
2023-05-07T13:44:04.173Z,3.05
2023-05-07T13:46:31.750Z,4.10
2023-05-07T13:48:59.379Z,3.55
2023-05-07T13:51:27.102Z,3.62
2023-05-07T13:53:55.461Z,3.60
2023-05-07T13:58:59.509Z,3.22
2023-05-07T14:01:28.822Z,3.33
2023-05-07T14:03:57.888Z,3.17
2023-05-07T14:08:52.722Z,3.20
2023-05-07T14:11:20.445Z,3.87
2023-05-07T14:13:47.815Z,4.40
2023-05-07T14:16:16.600Z,3.10
2023-05-07T14:18:44.319Z,3.53
2023-05-07T14:21:11.630Z,3.97
2023-05-07T14:23:38.957Z,4.30
2023-05-07T14:26:06.590Z,4.03
2023-05-07T14:28:33.908Z,4.00
2023-05-07T14:31:01.332Z,4.47
2023-05-07T14:33:28.996Z,4.05
2023-05-07T14:35:56.398Z,4.95
2023-05-07T14:38:23.829Z,4.25
2023-05-07T14:40:51.785Z,3.87
2023-05-07T14:43:19.233Z,4.07
2023-05-07T14:45:47.264Z,4.47
2023-05-07T14:48:16.347Z,4.47
2023-05-07T14:50:44.134Z,5.20
2023-05-07T14:53:11.405Z,4.00
2023-05-07T14:55:39.580Z,5.87
2023-05-07T14:58:07.027Z,5.30
2023-05-07T15:00:34.924Z,3.78
2023-05-07T15:03:12.116Z,3.83
2023-05-07T15:05:41.038Z,3.55
2023-05-07T15:08:08.834Z,4.10
2023-05-07T15:10:42.443Z,4.50
2023-05-07T15:13:15.850Z,3.92
2023-05-07T15:15:45.427Z,4.62
2023-05-07T15:18:13.254Z,4.70
2023-05-07T15:20:41.732Z,4.60
2023-05-07T15:23:16.379Z,4.03
2023-05-07T15:25:44.204Z,3.97
2023-05-07T15:28:11.867Z,3.53
2023-05-07T15:30:39.286Z,4.10
2023-05-07T15:33:07.007Z,4.82
2023-05-07T15:35:34.678Z,6.87
2023-05-07T15:38:04.786Z,4.93
2023-05-07T15:40:33.783Z,7.05
2023-05-07T15:43:01.423Z,5.07
2023-05-07T15:45:32.281Z,8.53
2023-05-07T15:48:00.517Z,4.78
2023-05-07T15:50:29.727Z,5.00
2023-05-07T15:52:56.999Z,7.22
2023-05-07T15:55:24.916Z,4.50
2023-05-07T15:57:52.788Z,3.40
2023-05-07T16:00:20.496Z,3.50
2023-05-07T16:02:48.402Z,3.85
2023-05-07T16:05:16.105Z,4.40
2023-05-07T16:07:44.741Z,3.87
2023-05-07T16:10:12.567Z,3.53
2023-05-07T16:12:40.005Z,3.67
2023-05-07T16:15:08.673Z,3.60
2023-05-07T16:17:36.522Z,4.65
2023-05-07T16:20:06.598Z,4.15
2023-05-07T16:22:34.143Z,3.90
2023-05-07T16:25:02.743Z,3.62
2023-05-07T16:27:30.477Z,3.80
2023-05-07T16:29:57.930Z,3.15
2023-05-07T16:32:28.510Z,3.37
2023-05-07T16:34:55.972Z,3.90
2023-05-07T16:37:23.334Z,3.53
2023-05-07T16:39:51.148Z,3.55
2023-05-07T16:42:18.437Z,3.80
2023-05-07T16:44:46.052Z,3.60
2023-05-07T16:47:13.660Z,4.03
2023-05-07T16:49:41.004Z,3.75
2023-05-07T16:52:08.686Z,3.87
2023-05-07T16:54:39.834Z,5.32
2023-05-07T16:57:07.354Z,4.07
2023-05-07T16:59:34.673Z,4.65
2023-05-07T17:02:02.256Z,6.18
2023-05-07T17:04:30.081Z,5.70
2023-05-07T17:06:57.890Z,5.10
2023-05-07T17:09:25.609Z,7.05
2023-05-07T17:11:52.844Z,6.00
2023-05-07T17:14:20.119Z,6.95
2023-05-07T17:16:47.961Z,10.02
2023-05-07T17:19:15.400Z,5.60
2023-05-07T17:21:42.954Z,6.12
2023-05-07T17:24:10.698Z,3.87
2023-05-07T17:26:39.419Z,3.85
2023-05-07T17:29:06.897Z,4.57
2023-05-07T17:31:34.632Z,4.55
2023-05-07T17:34:02.016Z,4.15
2023-05-07T17:36:29.317Z,4.10
2023-05-07T17:38:57.009Z,4.28
2023-05-07T17:41:24.452Z,4.00
2023-05-07T17:43:51.768Z,3.35
2023-05-07T17:46:19.561Z,4.15
2023-05-07T17:48:47.483Z,3.30
2023-05-07T17:51:14.992Z,3.50
2023-05-07T17:53:43.945Z,3.95
2023-05-07T17:56:12.246Z,3.12
2023-05-07T17:58:57.372Z,4.30
2023-05-07T18:01:27.325Z,3.72
2023-05-07T18:03:55.760Z,4.32
2023-05-07T18:06:23.471Z,3.90
2023-05-07T18:08:50.925Z,4.57
2023-05-07T18:11:18.545Z,4.30
2023-05-07T18:13:45.865Z,3.85
2023-05-07T18:16:15.007Z,4.80
2023-05-07T18:18:42.834Z,3.95
2023-05-07T18:21:15.818Z,4.03
2023-05-07T18:23:46.020Z,3.70
2023-05-07T18:26:13.566Z,3.57
2023-05-07T18:28:41.594Z,3.90
2023-05-07T18:31:11.593Z,7.60
2023-05-07T18:33:39.425Z,4.67
2023-05-07T18:36:07.103Z,4.23
2023-05-07T18:38:34.745Z,3.40
2023-05-07T18:41:04.576Z,4.20
2023-05-07T18:43:32.428Z,4.27
2023-05-07T18:46:00.340Z,3.83
2023-05-07T18:48:27.768Z,3.50
2023-05-07T18:50:55.142Z,3.37
2023-05-07T18:53:23.097Z,3.30
2023-05-07T18:55:51.320Z,4.20
2023-05-07T18:58:20.381Z,4.30
2023-05-07T19:00:50.272Z,5.47
2023-05-07T19:03:17.694Z,6.23
2023-05-07T19:05:45.838Z,7.90
2023-05-07T19:08:13.975Z,8.27
2023-05-07T19:10:41.257Z,13.67
2023-05-07T19:13:08.768Z,6.97
2023-05-07T19:15:36.486Z,5.63
2023-05-07T19:18:04.017Z,4.83
2023-05-07T19:20:31.442Z,4.37
2023-05-07T19:22:59.207Z,4.00
2023-05-07T19:25:27.760Z,4.47
2023-05-07T19:27:56.842Z,4.67
2023-05-07T19:30:24.639Z,4.97
2023-05-07T19:32:52.472Z,6.63
2023-05-07T19:35:20.045Z,13.07
2023-05-07T19:37:47.828Z,10.03
2023-05-07T19:40:15.245Z,10.77
2023-05-07T19:42:42.607Z,12.07
2023-05-07T19:45:10.918Z,10.93
2023-05-07T19:47:38.542Z,11.30
2023-05-07T19:50:06.658Z,10.03
2023-05-07T19:52:34.916Z,10.63
2023-05-07T19:55:02.361Z,9.90
2023-05-07T19:57:29.762Z,9.73
2023-05-07T19:59:57.690Z,9.53
2023-05-07T20:02:25.226Z,10.53
2023-05-07T20:04:55.244Z,10.83
2023-05-07T20:07:22.652Z,8.70
2023-05-07T20:09:50.132Z,9.77
2023-05-07T20:12:18.345Z,8.53
2023-05-07T20:14:45.684Z,7.10
2023-05-07T20:17:13.054Z,6.17
2023-05-07T20:19:40.786Z,5.10
2023-05-07T20:22:08.117Z,4.83
2023-05-07T20:24:39.487Z,5.00
2023-05-07T20:27:07.521Z,6.33
2023-05-07T20:29:35.125Z,22.37
2023-05-07T20:32:02.774Z,17.90
2023-05-07T20:34:30.670Z,13.57
2023-05-07T20:36:58.201Z,11.93
2023-05-07T20:39:25.659Z,12.47
2023-05-07T20:41:53.541Z,12.33
2023-05-07T20:44:20.935Z,10.70
2023-05-07T20:46:48.308Z,12.67
2023-05-07T20:49:16.692Z,15.27
2023-05-07T20:51:43.959Z,14.73
2023-05-07T20:54:13.155Z,12.43
2023-05-07T20:56:40.890Z,10.47
2023-05-07T20:59:08.273Z,7.40
2023-05-07T21:01:36.307Z,6.50
2023-05-07T21:04:04.053Z,7.25
2023-05-07T21:06:31.463Z,6.20
2023-05-07T21:08:58.833Z,6.20
2023-05-07T21:11:26.603Z,5.50
2023-05-07T21:13:53.990Z,6.37
2023-05-07T21:16:22.968Z,4.47
2023-05-07T21:18:50.812Z,4.20
2023-05-07T21:21:18.174Z,5.00
2023-05-07T21:23:45.477Z,16.50
2023-05-07T21:26:18.847Z,17.87
2023-05-07T21:28:46.671Z,9.90
2023-05-07T21:31:14.288Z,12.73
2023-05-07T21:33:43.025Z,13.20
2023-05-07T21:36:10.661Z,12.93
2023-05-07T21:38:38.884Z,8.03
2023-05-07T21:41:06.944Z,6.03
2023-05-07T21:43:34.256Z,11.90
2023-05-07T21:46:03.890Z,17.60
2023-05-07T21:48:31.276Z,13.53
2023-05-07T21:51:08.511Z,14.03
2023-05-07T21:53:36.564Z,14.10
2023-05-07T21:56:05.196Z,8.93
2023-05-07T21:58:32.789Z,8.23
2023-05-07T22:01:01.537Z,15.27
2023-05-07T22:03:30.245Z,13.98
2023-05-07T22:05:57.708Z,9.65
2023-05-07T22:08:25.043Z,7.40
2023-05-07T22:10:52.798Z,7.53
2023-05-07T22:13:20.289Z,8.70
2023-05-07T22:15:56.800Z,8.90
2023-05-07T22:18:26.234Z,9.07
2023-05-07T22:20:53.616Z,9.07
2023-05-07T22:23:22.235Z,8.68
2023-05-07T22:25:49.777Z,10.70
2023-05-07T22:28:17.588Z,13.27
2023-05-07T22:30:44.770Z,11.40
2023-05-07T22:33:12.377Z,10.17
2023-05-07T22:35:39.745Z,9.77
2023-05-07T22:38:07.107Z,8.80
2023-05-07T22:40:34.757Z,8.37
2023-05-07T22:43:02.200Z,8.33
2023-05-07T22:45:29.534Z,8.10
2023-05-07T22:47:57.122Z,7.30
2023-05-07T22:50:24.421Z,7.43
2023-05-07T22:52:51.636Z,8.97
2023-05-07T22:55:19.645Z,92.93
2023-05-07T22:57:47.221Z,39.23
2023-05-07T23:00:15.098Z,56.23
2023-05-07T23:02:43.144Z,43.00
2023-05-07T23:05:10.486Z,25.97
2023-05-07T23:07:38.074Z,16.80
2023-05-07T23:10:06.428Z,24.77
2023-05-07T23:12:33.648Z,23.87
2023-05-07T23:15:01.048Z,17.53
2023-05-07T23:17:28.916Z,13.73
2023-05-07T23:19:56.305Z,12.50
2023-05-07T23:22:23.605Z,15.97
2023-05-07T23:24:51.337Z,14.77
2023-05-07T23:27:18.665Z,12.50
2023-05-07T23:29:46.893Z,13.53
2023-05-07T23:32:14.532Z,10.68
2023-05-07T23:34:41.787Z,12.03
2023-05-07T23:37:12.755Z,8.97
2023-05-07T23:39:40.455Z,10.80
2023-05-07T23:42:07.697Z,13.20
2023-05-07T23:44:34.947Z,15.37
2023-05-07T23:47:02.647Z,12.17
2023-05-07T23:49:29.916Z,10.73
2023-05-07T23:51:57.195Z,12.93
2023-05-07T23:54:24.831Z,12.07
2023-05-07T23:56:52.611Z,10.33
2023-05-07T23:59:19.958Z,11.40
